Time;durP1;ratioP1;P1;durP2;ratioP2;P2;SDS_P1;SDS_P2;PMS_P1;PMS_P2;Temp;Humidity;BMP_temperature;BMP_pressure;BME280_temperature;BME280_humidity;BME280_pressure;Samples;Min_cycle;Max_cycle;Signal;HPM_P1;HPM_P2
2021/12/14 00:00:21;;;;;;;18.73;8.03;;;4.90;99.90;;;;;;5081391;28;20471;-69
2021/12/14 00:02:50;;;;;;;15.00;5.70;;;4.90;99.90;;;;;;5079002;28;20438;-69
2021/12/14 00:05:17;;;;;;;22.07;7.80;;;4.90;99.90;;;;;;5083461;28;20189;-69
2021/12/14 00:07:43;;;;;;;22.20;6.30;;;4.90;99.90;;;;;;5087501;28;20433;-69
2021/12/14 00:10:42;;;;;;;12.27;4.30;;;4.90;99.90;;;;;;5082876;28;20795;-69
2021/12/14 00:13:07;;;;;;;24.97;6.83;;;4.80;99.90;;;;;;5084930;28;20456;-69
2021/12/14 00:15:33;;;;;;;11.90;6.43;;;4.80;99.90;;;;;;5095811;28;20528;-69
2021/12/14 00:18:03;;;;;;;34.60;5.70;;;4.80;99.90;;;;;;5099557;28;20540;-69
2021/12/14 00:20:31;;;;;;;28.57;7.20;;;4.80;99.90;;;;;;5099465;28;20269;-69
2021/12/14 00:25:32;;;;;;;26.97;5.40;;;4.80;99.90;;;;;;5091023;28;20441;-69
2021/12/14 00:28:01;;;;;;;14.33;5.67;;;4.80;99.90;;;;;;5082022;28;20561;-69
2021/12/14 00:30:27;;;;;;;12.90;4.73;;;4.80;99.90;;;;;;5088768;28;20434;-69
2021/12/14 00:32:53;;;;;;;10.13;4.80;;;4.70;99.90;;;;;;5095377;28;20445;-69
2021/12/14 00:35:20;;;;;;;17.40;5.20;;;4.70;99.90;;;;;;5091783;28;20444;-69
2021/12/14 00:37:50;;;;;;;14.63;5.50;;;4.70;99.90;;;;;;5089300;28;20176;-69
2021/12/14 00:40:27;;;;;;;9.13;4.70;;;4.60;99.90;;;;;;5093526;28;20519;-69
2021/12/14 00:42:54;;;;;;;20.70;4.80;;;4.60;99.90;;;;;;5093270;28;20426;-68
2021/12/14 00:45:21;;;;;;;20.67;6.63;;;4.60;99.90;;;;;;5091963;28;20506;-68
2021/12/14 00:47:48;;;;;;;12.10;5.83;;;4.70;99.90;;;;;;5088863;28;20546;-68
2021/12/14 00:50:16;;;;;;;9.33;4.80;;;4.70;99.90;;;;;;5091028;28;20523;-69
2021/12/14 00:52:43;;;;;;;16.87;5.60;;;4.70;99.90;;;;;;5081541;28;20443;-69
2021/12/14 00:55:11;;;;;;;10.00;4.37;;;4.70;99.90;;;;;;5098943;28;20445;-69
2021/12/14 00:57:37;;;;;;;33.37;6.53;;;4.70;99.90;;;;;;5087149;28;20430;-69
2021/12/14 01:00:11;;;;;;;13.53;4.23;;;4.60;99.90;;;;;;5089012;28;20860;-69
2021/12/14 01:02:37;;;;;;;15.17;4.97;;;4.60;99.90;;;;;;5084776;28;20192;-69
2021/12/14 01:05:10;;;;;;;14.50;5.80;;;4.60;99.90;;;;;;5086310;28;20435;-69
2021/12/14 01:07:36;;;;;;;30.80;5.13;;;4.50;99.90;;;;;;5087562;28;20524;-69
2021/12/14 01:10:20;;;;;;;11.23;4.63;;;4.60;99.90;;;;;;5088432;28;20434;-68
2021/12/14 01:12:51;;;;;;;9.80;3.77;;;4.50;99.90;;;;;;5089008;28;20186;-69
2021/12/14 01:15:29;;;;;;;14.60;5.23;;;4.50;99.90;;;;;;5086781;28;20446;-69
2021/12/14 01:21:21;;;;;;;13.53;4.53;;;4.50;99.90;;;;;;5086586;28;20463;-69
2021/12/14 01:23:58;;;;;;;11.97;4.20;;;4.50;99.90;;;;;;5092062;28;20434;-69
2021/12/14 01:26:24;;;;;;;15.50;5.03;;;4.50;99.90;;;;;;5082305;28;20434;-69
2021/12/14 01:28:50;;;;;;;25.57;4.03;;;4.50;99.90;;;;;;5092825;28;20453;-69
2021/12/14 01:31:26;;;;;;;8.70;3.60;;;4.50;99.90;;;;;;5095014;28;20444;-69
2021/12/14 01:33:57;;;;;;;13.60;4.63;;;4.50;99.90;;;;;;5083032;28;20222;-69
2021/12/14 01:36:35;;;;;;;12.87;4.77;;;4.50;99.90;;;;;;5092114;28;20517;-69
2021/12/14 01:41:48;;;;;;;18.57;4.20;;;4.40;99.90;;;;;;5098762;28;20472;-69
2021/12/14 01:44:15;;;;;;;9.40;4.07;;;4.40;99.90;;;;;;5084487;28;20528;-69
2021/12/14 01:46:45;;;;;;;11.30;4.43;;;4.40;99.90;;;;;;5085333;28;20442;-69
2021/12/14 01:49:14;;;;;;;9.80;4.13;;;4.30;99.90;;;;;;5095210;28;20512;-69
2021/12/14 01:51:44;;;;;;;10.80;3.30;;;4.30;99.90;;;;;;5076341;28;21328;-69
2021/12/14 01:54:12;;;;;;;12.93;4.80;;;4.30;99.90;;;;;;5078153;28;20445;-69
2021/12/14 01:56:38;;;;;;;8.07;3.47;;;4.20;99.90;;;;;;5093719;28;20493;-69
2021/12/14 01:59:14;;;;;;;7.60;3.10;;;4.20;99.90;;;;;;5089060;28;20484;-69
2021/12/14 02:04:49;;;;;;;10.30;3.83;;;4.20;99.90;;;;;;5044831;28;20463;-69
2021/12/14 02:07:17;;;;;;;8.00;3.27;;;4.10;99.90;;;;;;5046528;28;20563;-69
2021/12/14 02:09:45;;;;;;;8.07;3.80;;;4.10;99.90;;;;;;5071784;28;20441;-69
2021/12/14 02:12:17;;;;;;;8.70;3.63;;;4.10;99.90;;;;;;5085913;28;20522;-69
2021/12/14 02:14:44;;;;;;;16.60;4.10;;;4.10;99.90;;;;;;5081154;28;20470;-69
2021/12/14 02:17:15;;;;;;;6.53;2.80;;;4.00;99.90;;;;;;5089355;28;20427;-69
2021/12/14 02:19:41;;;;;;;8.13;3.20;;;4.00;99.90;;;;;;5099309;28;20434;-69
2021/12/14 02:22:09;;;;;;;6.13;3.03;;;4.00;99.90;;;;;;5090206;28;20820;-69
2021/12/14 02:24:36;;;;;;;9.97;3.00;;;4.00;99.90;;;;;;5091870;28;20516;-69
2021/12/14 02:27:03;;;;;;;8.60;3.17;;;4.00;99.90;;;;;;5086930;28;20435;-69
2021/12/14 02:29:34;;;;;;;11.97;3.10;;;3.90;99.90;;;;;;5094385;28;20438;-69
2021/12/14 02:32:07;;;;;;;12.20;3.30;;;3.90;99.90;;;;;;5078609;28;20479;-69
2021/12/14 02:34:51;;;;;;;5.07;2.80;;;3.90;99.90;;;;;;5085374;28;20438;-69
2021/12/14 02:37:21;;;;;;;10.80;3.27;;;3.90;99.90;;;;;;5085583;28;20869;-69
2021/12/14 02:40:00;;;;;;;7.50;2.80;;;3.90;99.90;;;;;;5083904;28;20446;-69
2021/12/14 02:42:26;;;;;;;8.03;2.77;;;4.00;99.90;;;;;;5088608;28;20779;-69
2021/12/14 02:44:55;;;;;;;11.83;2.47;;;3.80;99.90;;;;;;5090604;28;20444;-69
2021/12/14 02:47:22;;;;;;;12.30;3.80;;;3.80;99.90;;;;;;5083855;28;20488;-69
2021/12/14 02:49:49;;;;;;;6.20;3.07;;;3.70;99.90;;;;;;5089299;28;20451;-69
2021/12/14 02:52:25;;;;;;;9.70;3.27;;;3.70;99.90;;;;;;5084837;28;20438;-69
2021/12/14 02:54:55;;;;;;;7.43;2.90;;;3.70;99.90;;;;;;5092768;28;20438;-69
2021/12/14 02:57:25;;;;;;;6.10;2.83;;;3.70;99.90;;;;;;5079227;28;20545;-69
2021/12/14 02:59:53;;;;;;;8.57;2.43;;;3.70;99.90;;;;;;5093117;28;20474;-69
2021/12/14 03:02:23;;;;;;;5.77;2.97;;;3.70;99.90;;;;;;5091438;28;20443;-69
2021/12/14 03:04:59;;;;;;;6.73;2.87;;;3.70;99.90;;;;;;5080563;28;20992;-69
2021/12/14 03:07:29;;;;;;;5.27;3.13;;;3.70;99.90;;;;;;5077215;28;20451;-69
2021/12/14 03:10:05;;;;;;;14.57;3.93;;;3.70;99.90;;;;;;5094495;28;20445;-69
2021/12/14 03:12:39;;;;;;;7.87;3.33;;;3.70;99.90;;;;;;5093879;28;20473;-69
2021/12/14 03:15:20;;;;;;;8.10;3.13;;;3.70;99.90;;;;;;5078061;28;20439;-69
2021/12/14 03:17:48;;;;;;;11.70;4.40;;;3.70;99.90;;;;;;5085544;28;20540;-69
2021/12/14 03:20:22;;;;;;;5.13;2.40;;;3.70;99.90;;;;;;5085418;28;20562;-69
2021/12/14 03:23:05;;;;;;;9.63;3.47;;;3.60;99.90;;;;;;5085737;28;20437;-69
2021/12/14 03:25:34;;;;;;;5.57;2.40;;;3.60;99.90;;;;;;5092074;28;20446;-69
2021/12/14 03:28:00;;;;;;;4.67;2.40;;;3.50;99.90;;;;;;5084029;28;20473;-69
2021/12/14 03:30:26;;;;;;;6.23;2.60;;;3.50;99.90;;;;;;5081747;28;20520;-69
2021/12/14 03:32:58;;;;;;;14.87;2.30;;;3.50;99.90;;;;;;5094155;28;20573;-69
2021/12/14 03:35:49;;;;;;;4.20;2.30;;;3.40;99.90;;;;;;5093833;28;20546;-69
2021/12/14 03:38:34;;;;;;;4.50;2.20;;;3.30;99.90;;;;;;5075549;28;20441;-69
2021/12/14 03:41:03;;;;;;;6.63;2.20;;;3.30;99.90;;;;;;5084951;28;20863;-69
2021/12/14 03:43:29;;;;;;;4.37;1.97;;;3.30;99.90;;;;;;5091877;28;20480;-69
2021/12/14 03:45:57;;;;;;;6.33;2.17;;;3.30;99.90;;;;;;5090944;28;20992;-66
2021/12/14 03:48:25;;;;;;;10.83;2.80;;;3.30;99.90;;;;;;5082675;28;20448;-67
2021/12/14 03:50:51;;;;;;;5.13;2.63;;;3.20;99.90;;;;;;5097541;28;20558;-68
2021/12/14 03:53:19;;;;;;;5.80;2.67;;;3.20;99.90;;;;;;5096435;28;20464;-68
2021/12/14 03:55:54;;;;;;;7.90;3.30;;;3.20;99.90;;;;;;5093834;28;20446;-68
2021/12/14 03:58:23;;;;;;;7.40;2.40;;;3.20;99.90;;;;;;5082656;28;20495;-68
2021/12/14 04:00:55;;;;;;;4.93;2.40;;;3.20;99.90;;;;;;5091378;28;20808;-69
2021/12/14 04:03:24;;;;;;;11.73;3.67;;;3.20;99.90;;;;;;5093469;28;20449;-68
2021/12/14 04:05:51;;;;;;;5.60;1.93;;;3.20;99.90;;;;;;5094610;28;20449;-68
2021/12/14 04:08:18;;;;;;;4.73;2.63;;;3.20;99.90;;;;;;5087187;28;20472;-68
2021/12/14 04:10:46;;;;;;;5.63;2.40;;;3.20;99.90;;;;;;5084781;28;20526;-68
2021/12/14 04:13:19;;;;;;;11.87;2.70;;;3.20;99.90;;;;;;5094827;28;20475;-67
2021/12/14 04:15:45;;;;;;;7.60;2.97;;;3.10;99.90;;;;;;5096425;28;20457;-67
2021/12/14 04:18:11;;;;;;;6.87;3.03;;;3.10;99.90;;;;;;5088905;28;20506;-67
2021/12/14 04:20:41;;;;;;;8.83;3.57;;;3.20;99.90;;;;;;5098580;28;20657;-68
2021/12/14 04:23:19;;;;;;;8.17;2.90;;;3.10;99.90;;;;;;5102003;28;20446;-67
2021/12/14 04:25:48;;;;;;;11.93;3.30;;;3.10;99.90;;;;;;5091938;28;20437;-67
2021/12/14 04:28:18;;;;;;;4.93;2.67;;;3.10;99.90;;;;;;5087148;28;20536;-67
2021/12/14 04:30:44;;;;;;;5.63;2.30;;;3.00;99.90;;;;;;5086930;28;20852;-67
2021/12/14 04:33:13;;;;;;;6.73;2.60;;;2.90;99.90;;;;;;5098119;28;20477;-67
2021/12/14 04:35:43;;;;;;;3.50;1.73;;;2.90;99.90;;;;;;5096170;28;20434;-67
2021/12/14 04:38:17;;;;;;;6.20;2.80;;;2.80;99.90;;;;;;5095177;28;20449;-67
2021/12/14 04:55:00;;;;;;;9.10;3.30;;;2.80;99.90;;;;;;5066916;28;20444;-68
2021/12/14 04:57:34;;;;;;;7.00;2.80;;;2.70;99.90;;;;;;5084454;28;20530;-68
2021/12/14 05:00:19;;;;;;;6.77;3.07;;;2.70;99.90;;;;;;5090853;28;20559;-68
2021/12/14 05:02:46;;;;;;;7.57;3.80;;;2.70;99.90;;;;;;5086584;28;20433;-68
2021/12/14 05:05:24;;;;;;;8.90;3.63;;;2.70;99.90;;;;;;5085553;28;20446;-67
2021/12/14 05:10:59;;;;;;;5.90;2.70;;;2.70;99.90;;;;;;5070438;28;20528;-68
2021/12/14 05:13:33;;;;;;;4.63;2.30;;;2.70;99.90;;;;;;5083141;28;20565;-68
2021/12/14 05:15:58;;;;;;;6.40;3.03;;;2.70;99.90;;;;;;5081595;28;20480;-68
2021/12/14 05:18:24;;;;;;;9.67;3.40;;;2.70;99.90;;;;;;5087664;28;20784;-68
2021/12/14 05:20:51;;;;;;;8.80;3.30;;;2.70;99.90;;;;;;5084609;28;21059;-68
2021/12/14 05:23:24;;;;;;;4.90;3.17;;;2.80;99.90;;;;;;5081437;28;20917;-68
2021/12/14 05:25:51;;;;;;;5.40;2.70;;;2.70;99.90;;;;;;5090792;28;20441;-68
2021/12/14 05:28:19;;;;;;;5.30;3.00;;;2.70;99.90;;;;;;5081415;28;20442;-68
2021/12/14 05:30:48;;;;;;;7.70;3.40;;;2.60;99.90;;;;;;5093099;28;20457;-68
2021/12/14 05:33:17;;;;;;;6.93;4.17;;;2.60;99.90;;;;;;5087426;28;20473;-68
2021/12/14 05:35:46;;;;;;;8.17;3.40;;;2.60;99.90;;;;;;5098159;28;20520;-68
2021/12/14 05:38:16;;;;;;;10.30;4.80;;;2.60;99.90;;;;;;5094067;28;20464;-68
2021/12/14 05:43:25;;;;;;;4.70;3.00;;;2.60;99.90;;;;;;5095617;28;20932;-68
2021/12/14 05:45:56;;;;;;;7.87;3.27;;;2.60;99.90;;;;;;5092671;28;20432;-68
2021/12/14 05:48:28;;;;;;;7.57;3.03;;;2.60;99.90;;;;;;5086422;28;20526;-68
2021/12/14 05:50:57;;;;;;;8.73;2.90;;;2.60;99.90;;;;;;5087544;28;20438;-68
2021/12/14 05:53:28;;;;;;;4.93;2.53;;;2.50;99.90;;;;;;5080539;28;20439;-68
2021/12/14 05:55:55;;;;;;;7.93;4.33;;;2.50;99.90;;;;;;5094617;28;20449;-68
2021/12/14 05:58:23;;;;;;;8.47;4.10;;;2.40;99.90;;;;;;5092155;28;20446;-68
2021/12/14 06:00:54;;;;;;;6.57;3.50;;;2.40;99.90;;;;;;5089407;28;20603;-68
2021/12/14 06:03:27;;;;;;;5.67;2.90;;;2.40;99.90;;;;;;5077555;28;20454;-68
2021/12/14 06:05:55;;;;;;;4.30;2.83;;;2.40;99.90;;;;;;5097151;28;20446;-68
2021/12/14 06:08:27;;;;;;;14.20;3.23;;;2.40;99.90;;;;;;5092599;28;20467;-67
2021/12/14 06:10:55;;;;;;;5.43;3.00;;;2.40;99.90;;;;;;5093870;27;20936;-67
2021/12/14 06:13:32;;;;;;;7.03;3.57;;;2.40;99.90;;;;;;5088871;28;20457;-67
2021/12/14 06:15:58;;;;;;;7.50;3.10;;;2.40;99.90;;;;;;5092616;28;20532;-68
2021/12/14 06:18:24;;;;;;;8.20;3.83;;;2.40;99.90;;;;;;5096268;28;20900;-67
2021/12/14 06:20:50;;;;;;;6.40;4.20;;;2.40;99.90;;;;;;5095104;28;20220;-67
2021/12/14 06:23:24;;;;;;;4.30;2.47;;;2.40;99.90;;;;;;5080820;28;20465;-68
2021/12/14 06:25:49;;;;;;;7.87;3.67;;;2.30;99.90;;;;;;5093855;27;20744;-68
2021/12/14 06:28:26;;;;;;;8.83;4.10;;;2.30;99.90;;;;;;5082686;28;20442;-66
2021/12/14 06:30:53;;;;;;;8.63;4.17;;;2.30;99.90;;;;;;5097700;28;20179;-67
2021/12/14 06:33:20;;;;;;;5.97;3.10;;;2.30;99.90;;;;;;5087238;28;20781;-67
2021/12/14 06:35:49;;;;;;;7.13;3.03;;;2.30;99.90;;;;;;5087066;28;20520;-67
2021/12/14 06:38:26;;;;;;;7.30;3.20;;;2.20;99.90;;;;;;5080281;28;20532;-67
2021/12/14 06:41:06;;;;;;;8.50;4.30;;;2.20;99.90;;;;;;5082552;28;24042;-68
2021/12/14 06:43:40;;;;;;;5.70;3.27;;;2.20;99.90;;;;;;5086863;28;20462;-68
2021/12/14 06:46:18;;;;;;;6.80;3.13;;;2.10;99.90;;;;;;5086434;28;20458;-68
2021/12/14 06:48:50;;;;;;;6.80;3.87;;;2.20;99.90;;;;;;5090886;28;20886;-68
2021/12/14 06:51:27;;;;;;;7.23;3.53;;;2.20;99.90;;;;;;5088462;28;20450;-68
2021/12/14 06:53:57;;;;;;;8.77;4.33;;;2.20;99.90;;;;;;5086023;28;20920;-68
2021/12/14 06:56:26;;;;;;;8.37;4.17;;;2.20;99.90;;;;;;5079758;28;20525;-68
2021/12/14 06:59:01;;;;;;;11.57;5.40;;;2.20;99.90;;;;;;5095082;28;20454;-68
2021/12/14 07:01:30;;;;;;;5.47;3.00;;;2.20;99.90;;;;;;5097468;28;20845;-68
2021/12/14 07:04:03;;;;;;;6.70;3.10;;;2.20;99.90;;;;;;5100831;28;20421;-68
2021/12/14 07:06:40;;;;;;;5.43;3.27;;;2.20;99.90;;;;;;5106728;28;20509;-68
2021/12/14 07:09:38;;;;;;;4.57;2.73;;;2.20;99.90;;;;;;5095358;28;20524;-68
2021/12/14 07:12:15;;;;;;;6.50;3.60;;;2.20;99.90;;;;;;5093494;28;20739;-68
2021/12/14 07:14:53;;;;;;;5.57;3.73;;;2.30;99.90;;;;;;5090161;28;20473;-68
2021/12/14 07:17:26;;;;;;;8.00;4.10;;;2.30;99.90;;;;;;5092096;28;20452;-68
2021/12/14 07:19:56;;;;;;;6.33;3.40;;;2.40;99.90;;;;;;5094453;28;20414;-68
2021/12/14 07:22:26;;;;;;;5.33;2.67;;;2.50;99.90;;;;;;5101752;28;20451;-68
2021/12/14 07:25:16;;;;;;;5.47;2.43;;;2.60;99.90;;;;;;5092974;28;20422;-68
2021/12/14 07:27:44;;;;;;;6.13;3.43;;;2.70;99.90;;;;;;5094793;28;20445;-68
2021/12/14 07:30:16;;;;;;;5.27;3.60;;;2.80;99.90;;;;;;5103671;28;20460;-68
2021/12/14 07:32:48;;;;;;;7.37;3.40;;;2.90;99.90;;;;;;5100183;28;20472;-68
2021/12/14 07:35:31;;;;;;;7.00;2.97;;;2.90;99.90;;;;;;5092579;28;20809;-68
2021/12/14 07:38:01;;;;;;;5.83;2.77;;;3.00;99.90;;;;;;5089417;28;20415;-68
2021/12/14 07:40:44;;;;;;;2.80;2.13;;;3.00;99.90;;;;;;5099617;28;20465;-68
2021/12/14 07:43:24;;;;;;;11.80;2.13;;;3.10;99.90;;;;;;5099949;28;20438;-68
2021/12/14 07:45:51;;;;;;;3.80;2.07;;;3.20;99.90;;;;;;5097917;28;20894;-67
2021/12/14 07:48:20;;;;;;;8.30;1.90;;;3.20;99.90;;;;;;5098794;28;20579;-67
2021/12/14 07:50:53;;;;;;;2.90;1.80;;;3.30;99.90;;;;;;5090969;28;20426;-68
2021/12/14 07:53:35;;;;;;;3.20;2.13;;;3.30;99.90;;;;;;5099610;28;20480;-68
2021/12/14 07:56:01;;;;;;;4.00;1.47;;;3.30;99.90;;;;;;5100627;28;20556;-68
2021/12/14 07:58:41;;;;;;;7.03;1.80;;;3.30;99.90;;;;;;5106407;28;20452;-67
2021/12/14 08:01:08;;;;;;;5.53;2.50;;;3.30;99.90;;;;;;5100709;28;20890;-69
2021/12/14 08:03:34;;;;;;;4.43;2.60;;;3.20;99.90;;;;;;5097205;28;20904;-67
2021/12/14 08:06:07;;;;;;;2.87;1.67;;;3.10;99.90;;;;;;5100285;28;20486;-67
2021/12/14 08:08:48;;;;;;;2.63;1.40;;;3.20;99.90;;;;;;5091771;28;20463;-67
2021/12/14 08:14:10;;;;;;;3.00;1.67;;;3.20;99.90;;;;;;5106763;28;20484;-68
2021/12/14 08:16:46;;;;;;;4.13;1.70;;;3.20;99.90;;;;;;5104493;28;20425;-68
2021/12/14 08:19:14;;;;;;;3.20;1.80;;;3.20;99.90;;;;;;5087230;28;20452;-68
2021/12/14 08:21:44;;;;;;;2.93;2.03;;;3.20;99.90;;;;;;5096282;28;20484;-67
2021/12/14 08:24:10;;;;;;;5.40;2.03;;;3.30;99.90;;;;;;5095938;28;20460;-67
2021/12/14 08:26:40;;;;;;;2.50;1.73;;;3.30;99.90;;;;;;5105305;28;20418;-67
2021/12/14 08:29:14;;;;;;;2.17;1.53;;;3.30;99.90;;;;;;5099362;28;20185;-67
2021/12/14 08:31:44;;;;;;;6.30;2.27;;;3.40;99.90;;;;;;5098688;28;20859;-68
2021/12/14 08:34:17;;;;;;;3.20;1.60;;;3.50;99.90;;;;;;5099518;28;20441;-67
2021/12/14 08:36:47;;;;;;;2.40;1.47;;;3.60;99.90;;;;;;5090864;28;20417;-67
2021/12/14 08:39:13;;;;;;;4.43;1.80;;;3.70;99.90;;;;;;5097954;28;20414;-67
2021/12/14 08:41:47;;;;;;;4.30;2.10;;;3.60;99.90;;;;;;5107095;28;20465;-68
2021/12/14 08:44:20;;;;;;;3.90;1.70;;;3.60;99.90;;;;;;5098147;28;20187;-67
2021/12/14 08:46:49;;;;;;;8.10;2.17;;;3.80;99.90;;;;;;5099234;28;20429;-67
2021/12/14 08:49:16;;;;;;;4.50;2.53;;;3.70;99.90;;;;;;5087559;28;20514;-67
2021/12/14 08:51:44;;;;;;;5.43;2.37;;;3.80;99.90;;;;;;5100438;28;20434;-67
2021/12/14 08:54:17;;;;;;;4.17;2.53;;;3.80;99.90;;;;;;5084648;28;20422;-67
2021/12/14 08:56:50;;;;;;;2.63;1.23;;;3.80;99.90;;;;;;5103059;28;20508;-68
2021/12/14 08:59:16;;;;;;;3.70;1.60;;;4.10;99.90;;;;;;5099529;28;20464;-67
2021/12/14 09:01:43;;;;;;;2.90;1.77;;;4.20;99.90;;;;;;5093072;28;21234;-67
2021/12/14 09:04:22;;;;;;;2.33;1.53;;;4.20;99.90;;;;;;5103860;28;20328;-68
2021/12/14 09:06:53;;;;;;;3.50;1.67;;;4.10;99.90;;;;;;5103826;28;21251;-68
2021/12/14 09:09:22;;;;;;;4.27;1.63;;;4.30;99.90;;;;;;5085705;28;20423;-68
2021/12/14 09:11:53;;;;;;;2.30;1.27;;;4.40;99.90;;;;;;5088174;28;20445;-68
2021/12/14 09:14:18;;;;;;;3.93;1.97;;;4.50;99.90;;;;;;5089350;28;20427;-68
2021/12/14 09:16:49;;;;;;;2.07;1.60;;;4.60;99.90;;;;;;5090688;28;20968;-67
2021/12/14 09:19:19;;;;;;;4.30;2.70;;;4.70;99.90;;;;;;5082977;28;20220;-67
2021/12/14 09:21:48;;;;;;;3.03;1.97;;;4.80;99.90;;;;;;5087336;28;20465;-68
2021/12/14 09:24:17;;;;;;;5.10;1.50;;;4.90;99.90;;;;;;5104564;28;20425;-68
2021/12/14 09:26:47;;;;;;;2.97;2.00;;;4.90;99.90;;;;;;5110887;28;20937;-68
2021/12/14 09:29:15;;;;;;;8.10;2.93;;;5.00;99.90;;;;;;5095159;27;21158;-68
2021/12/14 09:31:47;;;;;;;9.37;3.73;;;5.00;99.90;;;;;;5084972;28;20418;-68
2021/12/14 09:34:14;;;;;;;6.60;2.90;;;5.10;99.90;;;;;;5095946;28;20427;-68
2021/12/14 09:36:41;;;;;;;2.70;1.03;;;5.20;99.90;;;;;;5096414;28;20427;-68
2021/12/14 09:39:17;;;;;;;2.67;1.27;;;5.40;99.90;;;;;;5091327;27;20422;-68
2021/12/14 09:41:45;;;;;;;3.30;1.47;;;5.50;99.90;;;;;;5087155;28;20465;-67
2021/12/14 09:44:16;;;;;;;2.90;1.50;;;5.60;99.90;;;;;;5085845;28;20429;-68
2021/12/14 09:46:43;;;;;;;3.10;1.17;;;5.70;99.90;;;;;;5093771;28;20429;-68
2021/12/14 09:49:10;;;;;;;4.37;1.10;;;5.70;99.90;;;;;;5094010;28;21249;-68
2021/12/14 09:51:47;;;;;;;2.87;1.60;;;5.70;99.90;;;;;;5089608;28;20511;-68
2021/12/14 09:54:19;;;;;;;3.97;1.63;;;5.70;99.90;;;;;;5094361;28;20550;-68
2021/12/14 09:56:50;;;;;;;3.53;1.80;;;5.70;99.90;;;;;;5096530;28;20441;-68
2021/12/14 09:59:20;;;;;;;1.90;1.00;;;5.70;99.90;;;;;;5089796;28;20438;-68
2021/12/14 10:02:02;;;;;;;5.70;1.60;;;5.70;99.90;;;;;;5088669;28;20473;-68
2021/12/14 10:04:36;;;;;;;3.53;1.90;;;5.60;99.90;;;;;;5093667;28;20414;-68
2021/12/14 10:07:04;;;;;;;2.60;1.23;;;5.60;99.90;;;;;;5096466;28;20402;-68
2021/12/14 10:09:38;;;;;;;3.03;1.67;;;5.60;99.90;;;;;;5089875;28;20433;-68
2021/12/14 10:14:45;;;;;;;2.63;1.60;;;5.60;99.90;;;;;;5089498;28;20467;-68
2021/12/14 10:17:13;;;;;;;4.73;1.60;;;5.60;99.90;;;;;;5091081;28;20765;-68
2021/12/14 10:19:41;;;;;;;2.73;1.70;;;5.70;99.90;;;;;;5100274;28;20441;-68
2021/12/14 10:22:12;;;;;;;2.43;1.43;;;5.80;99.90;;;;;;5096988;28;21378;-67
2021/12/14 10:24:39;;;;;;;3.67;1.60;;;6.00;99.90;;;;;;5098853;28;20436;-67
2021/12/14 10:27:12;;;;;;;4.37;2.07;;;6.00;99.90;;;;;;5092693;28;20467;-68
2021/12/14 10:29:38;;;;;;;4.67;2.10;;;6.00;99.90;;;;;;5098096;28;20455;-68
2021/12/14 10:32:14;;;;;;;2.33;1.40;;;6.00;99.90;;;;;;5088252;28;20431;-67
2021/12/14 10:34:49;;;;;;;10.50;2.63;;;5.90;99.90;;;;;;5092531;28;20421;-67
2021/12/14 10:43:34;;;;;;;2.23;1.20;;;6.00;99.90;;;;;;5082133;28;20418;-67
2021/12/14 10:46:06;;;;;;;4.03;1.43;;;6.20;99.90;;;;;;5091407;28;20485;-67
2021/12/14 10:48:36;;;;;;;3.00;1.53;;;6.40;99.90;;;;;;5093895;28;20576;-67
2021/12/14 10:51:05;;;;;;;2.80;1.40;;;6.40;99.90;;;;;;5097333;28;20753;-67
2021/12/14 10:53:32;;;;;;;2.70;1.53;;;6.50;99.90;;;;;;5101785;28;20438;-68
2021/12/14 10:56:12;;;;;;;2.90;1.50;;;6.60;99.90;;;;;;5085020;28;20473;-67
2021/12/14 10:58:38;;;;;;;2.10;1.20;;;6.80;99.90;;;;;;5102166;28;20460;-67
2021/12/14 11:01:14;;;;;;;3.43;1.20;;;6.80;99.90;;;;;;5086627;28;20506;-68
2021/12/14 11:03:46;;;;;;;2.90;1.53;;;6.90;99.90;;;;;;5096225;28;21100;-68
2021/12/14 11:06:15;;;;;;;2.50;1.33;;;7.00;99.90;;;;;;5084894;28;20442;-68
2021/12/14 11:09:01;;;;;;;2.50;1.40;;;7.10;99.90;;;;;;5076702;28;20931;-68
2021/12/14 11:11:37;;;;;;;2.40;1.50;;;7.10;99.90;;;;;;5080239;28;20422;-68
2021/12/14 11:14:09;;;;;;;3.83;1.67;;;7.10;99.90;;;;;;5096729;28;20495;-68
2021/12/14 11:19:47;;;;;;;9.10;3.20;;;7.20;99.90;;;;;;5082811;28;20430;-68
2021/12/14 11:22:48;;;;;;;3.07;1.60;;;7.20;99.90;;;;;;5097529;28;20525;-68
2021/12/14 11:25:23;;;;;;;4.23;2.23;;;7.20;99.90;;;;;;5082455;28;20899;-68
2021/12/14 11:27:55;;;;;;;2.80;1.50;;;7.30;99.90;;;;;;5094928;28;20899;-68
2021/12/14 11:30:33;;;;;;;4.30;2.47;;;7.30;99.90;;;;;;5092628;28;20433;-68
2021/12/14 11:33:17;;;;;;;4.30;2.30;;;7.50;99.90;;;;;;5094923;28;20913;-68
2021/12/14 11:35:53;;;;;;;13.17;2.40;;;7.60;99.90;;;;;;5092944;28;20467;-68
2021/12/14 11:38:38;;;;;;;2.80;1.63;;;7.60;99.90;;;;;;5091448;28;20914;-68
2021/12/14 11:41:37;;;;;;;7.13;1.40;;;7.80;99.90;;;;;;5092268;28;20577;-68
2021/12/14 11:44:12;;;;;;;4.93;1.50;;;7.80;99.90;;;;;;5088493;28;20742;-68
2021/12/14 11:46:55;;;;;;;2.13;1.20;;;7.90;99.90;;;;;;5092333;28;20450;-68
2021/12/14 11:49:24;;;;;;;2.23;1.50;;;8.00;99.90;;;;;;5087393;28;20426;-68
2021/12/14 11:51:51;;;;;;;3.27;1.30;;;8.00;99.90;;;;;;5088584;28;20443;-68
2021/12/14 11:54:20;;;;;;;2.60;1.47;;;8.00;99.90;;;;;;5092250;28;20457;-68
2021/12/14 11:56:48;;;;;;;2.60;1.37;;;8.00;99.90;;;;;;5084387;28;20451;-68
2021/12/14 11:59:15;;;;;;;2.93;1.57;;;8.10;99.90;;;;;;5083062;28;20448;-67
2021/12/14 12:01:49;;;;;;;3.40;1.63;;;8.30;99.90;;;;;;5094374;28;20458;-67
2021/12/14 12:04:21;;;;;;;3.87;1.60;;;8.40;99.90;;;;;;5092540;28;20431;-67
2021/12/14 12:09:40;;;;;;;3.33;1.40;;;8.50;99.90;;;;;;5091897;28;20410;-67
2021/12/14 12:12:12;;;;;;;3.33;1.60;;;8.60;99.90;;;;;;5089466;28;20813;-67
2021/12/14 12:14:47;;;;;;;3.20;1.50;;;8.60;99.90;;;;;;5085396;28;20471;-68
2021/12/14 12:17:31;;;;;;;6.03;1.30;;;8.60;99.90;;;;;;5092482;28;20944;-68
2021/12/14 12:20:05;;;;;;;3.67;1.73;;;8.70;99.90;;;;;;5092251;28;20434;-68
2021/12/14 12:22:41;;;;;;;2.90;1.77;;;8.70;99.90;;;;;;5096904;28;20454;-68
2021/12/14 12:25:20;;;;;;;2.60;1.17;;;8.70;99.90;;;;;;5091944;28;20411;-68
2021/12/14 12:27:48;;;;;;;5.63;1.33;;;8.70;99.90;;;;;;5094838;28;20424;-68
2021/12/14 12:30:35;;;;;;;2.97;1.53;;;8.60;99.90;;;;;;5104027;27;20417;-68
2021/12/14 12:33:09;;;;;;;2.90;1.30;;;8.50;99.90;;;;;;5097485;28;20448;-68
2021/12/14 12:35:40;;;;;;;3.20;1.30;;;8.50;99.90;;;;;;5095787;28;20903;-68
2021/12/14 12:38:21;;;;;;;2.03;1.00;;;8.50;99.90;;;;;;5097310;28;20413;-68
2021/12/14 12:41:05;;;;;;;3.60;1.53;;;8.50;99.90;;;;;;5095176;28;20476;-68
2021/12/14 12:43:36;;;;;;;4.20;1.60;;;8.50;99.90;;;;;;5090519;28;20433;-68
2021/12/14 12:46:13;;;;;;;5.80;1.70;;;8.50;99.90;;;;;;5085689;28;20426;-68
2021/12/14 12:48:54;;;;;;;2.43;1.50;;;8.50;99.90;;;;;;5105507;28;20497;-68
2021/12/14 12:51:55;;;;;;;3.10;1.53;;;8.40;99.90;;;;;;5104819;28;20824;-68
2021/12/14 12:54:38;;;;;;;3.10;1.10;;;8.40;99.90;;;;;;5093849;28;20428;-68
2021/12/14 12:57:28;;;;;;;3.83;1.43;;;8.40;99.90;;;;;;5093553;28;20416;-68
2021/12/14 13:00:09;;;;;;;6.23;1.20;;;8.40;99.90;;;;;;5091144;28;20442;-68
2021/12/14 13:02:41;;;;;;;2.17;1.40;;;8.40;99.90;;;;;;5091204;28;21294;-68
2021/12/14 13:05:28;;;;;;;3.97;2.07;;;8.40;99.90;;;;;;5092005;28;20422;-68
2021/12/14 13:07:56;;;;;;;3.10;1.27;;;8.40;99.90;;;;;;5103475;28;20440;-67
2021/12/14 13:10:26;;;;;;;5.80;1.50;;;8.40;99.90;;;;;;5097713;28;20422;-67
2021/12/14 13:12:54;;;;;;;3.60;1.73;;;8.40;99.90;;;;;;5095296;28;20465;-68
2021/12/14 13:15:42;;;;;;;2.73;1.73;;;8.30;99.90;;;;;;5094873;28;20907;-67
2021/12/14 13:18:34;;;;;;;6.97;2.33;;;8.30;99.90;;;;;;5096083;28;20410;-67
2021/12/14 13:21:13;;;;;;;10.20;2.13;;;8.40;99.90;;;;;;5104262;28;20469;-67
2021/12/14 13:23:51;;;;;;;3.43;1.70;;;8.40;99.90;;;;;;5103195;28;20422;-67
2021/12/14 13:26:37;;;;;;;2.80;1.60;;;8.40;99.90;;;;;;5105538;28;21135;-67
2021/12/14 13:29:14;;;;;;;3.00;1.10;;;8.40;99.90;;;;;;5104629;27;20466;-67
2021/12/14 13:32:00;;;;;;;2.63;1.70;;;8.40;99.90;;;;;;5095072;28;20440;-68
2021/12/14 13:34:52;;;;;;;5.70;2.33;;;8.40;99.90;;;;;;5094979;28;20519;-68
2021/12/14 13:37:22;;;;;;;3.50;1.23;;;8.40;99.90;;;;;;5105313;28;20429;-67
2021/12/14 13:39:50;;;;;;;3.90;1.47;;;8.40;99.90;;;;;;5109355;28;20420;-67
2021/12/14 13:42:28;;;;;;;2.23;0.90;;;8.40;99.90;;;;;;5096621;28;20468;-66
2021/12/14 13:44:53;;;;;;;2.83;1.33;;;8.30;99.90;;;;;;5092231;28;20540;-66
2021/12/14 13:47:23;;;;;;;2.37;1.57;;;8.20;99.90;;;;;;5108608;28;21012;-66
2021/12/14 13:49:49;;;;;;;2.43;1.53;;;8.20;99.90;;;;;;5107548;28;20704;-67
2021/12/14 13:52:18;;;;;;;9.60;2.13;;;8.20;99.90;;;;;;5101744;28;20501;-67
2021/12/14 13:55:23;;;;;;;1.73;1.03;;;8.10;99.90;;;;;;5097411;28;20186;-66
2021/12/14 13:57:54;;;;;;;2.67;1.70;;;8.20;99.90;;;;;;5065745;28;20458;-67
2021/12/14 14:00:34;;;;;;;3.50;1.90;;;8.10;99.90;;;;;;5054578;28;20485;-67
2021/12/14 14:03:00;;;;;;;5.17;2.10;;;8.00;99.90;;;;;;5095500;28;20963;-67
2021/12/14 14:05:27;;;;;;;4.60;2.57;;;8.10;99.90;;;;;;5096891;28;20424;-67
2021/12/14 14:07:58;;;;;;;11.90;2.67;;;8.10;99.90;;;;;;5094028;28;20335;-67
2021/12/14 14:10:26;;;;;;;3.40;1.87;;;8.10;99.90;;;;;;5095023;28;20509;-67